Time;durP1;ratioP1;P1;durP2;ratioP2;P2;SDS_P1;SDS_P2;PMS_P1;PMS_P2;Temp;Humidity;BMP_temperature;BMP_pressure;BME280_temperature;BME280_humidity;BME280_pressure;Samples;Min_cycle;Max_cycle;Signal;HPM_P1;HPM_P2
2023/08/11 00:01:18;;;;;;;3.80;3.50;;;;;;;18.35;100.00;97049.31;5044212;28;20207;-61
2023/08/11 00:03:44;;;;;;;3.58;3.25;;;;;;;18.29;100.00;97055.38;5044283;28;20196;-61
2023/08/11 00:06:16;;;;;;;4.63;3.78;;;;;;;18.33;100.00;97054.00;5043657;28;20258;-60
2023/08/11 00:08:42;;;;;;;5.80;3.58;;;;;;;18.27;100.00;97052.06;5044389;28;20243;-60
2023/08/11 00:11:11;;;;;;;4.15;3.55;;;;;;;18.26;100.00;97053.06;5044587;28;20199;-60
2023/08/11 00:13:37;;;;;;;3.60;3.30;;;;;;;18.28;100.00;97053.72;5044156;28;20223;-61
2023/08/11 00:16:04;;;;;;;4.32;3.88;;;;;;;18.28;100.00;97053.72;5050678;28;20270;-60
2023/08/11 00:18:32;;;;;;;4.05;3.70;;;;;;;18.27;100.00;97052.06;5054199;28;20199;-61
2023/08/11 00:20:59;;;;;;;3.35;3.15;;;;;;;18.23;100.00;97050.75;5050452;28;20195;-60
2023/08/11 00:23:26;;;;;;;4.68;3.70;;;;;;;18.24;100.00;97057.78;5046792;28;20659;-61
2023/08/11 00:25:53;;;;;;;3.95;3.65;;;;;;;18.20;100.00;97062.66;5044647;28;20199;-60
2023/08/11 00:28:19;;;;;;;5.03;3.45;;;;;;;18.15;100.00;97050.81;5043608;28;20211;-62
2023/08/11 00:30:45;;;;;;;5.90;3.97;;;;;;;18.08;100.00;97057.88;5044301;28;20203;-60
2023/08/11 00:33:12;;;;;;;4.43;3.80;;;;;;;18.10;100.00;97053.22;5044442;28;20219;-60
2023/08/11 00:35:42;;;;;;;4.07;3.67;;;;;;;18.05;100.00;97059.09;5044110;28;20218;-61
2023/08/11 00:38:08;;;;;;;3.85;3.53;;;;;;;18.04;100.00;97061.94;5044697;28;20298;-61
2023/08/11 00:40:36;;;;;;;3.85;3.55;;;;;;;18.06;100.00;97059.94;5042906;28;20208;-60
2023/08/11 00:43:05;;;;;;;3.97;3.55;;;;;;;18.02;100.00;97066.66;5042288;28;20209;-60
2023/08/11 00:45:32;;;;;;;3.95;3.58;;;;;;;17.96;100.00;97062.03;5050616;28;20253;-61
2023/08/11 00:47:59;;;;;;;4.28;3.85;;;;;;;17.92;100.00;97069.56;5051581;28;20215;-60
2023/08/11 00:50:27;;;;;;;3.78;3.47;;;;;;;17.98;100.00;97076.03;5045920;28;20218;-61
2023/08/11 00:52:55;;;;;;;4.90;3.55;;;;;;;17.97;100.00;97071.69;5043621;28;20285;-60
2023/08/11 00:55:22;;;;;;;4.60;3.83;;;;;;;17.92;100.00;97068.72;5042566;28;20211;-61
2023/08/11 00:57:49;;;;;;;4.97;3.80;;;;;;;17.92;100.00;97075.72;5042907;28;20214;-61
2023/08/11 01:00:19;;;;;;;5.57;3.45;;;;;;;17.89;100.00;97070.75;5043742;28;20204;-60
2023/08/11 01:02:46;;;;;;;3.85;3.47;;;;;;;17.81;100.00;97068.13;5050264;28;20255;-61
2023/08/11 01:05:15;;;;;;;3.80;3.40;;;;;;;17.80;100.00;97073.66;5050152;28;20674;-60
2023/08/11 01:07:47;;;;;;;5.40;4.00;;;;;;;17.72;100.00;97071.88;5049473;28;20245;-61
2023/08/11 01:10:22;;;;;;;4.40;3.63;;;;;;;17.75;100.00;97074.19;5042565;28;20218;-60
2023/08/11 01:13:01;;;;;;;4.65;4.10;;;;;;;17.77;100.00;97071.34;5043700;28;20250;-61
2023/08/11 01:15:32;;;;;;;3.92;3.42;;;;;;;17.72;100.00;97079.06;5043121;28;20227;-60
2023/08/11 01:17:59;;;;;;;4.25;3.35;;;;;;;17.71;100.00;97072.88;5043127;28;20183;-60
2023/08/11 01:20:26;;;;;;;4.72;3.40;;;;;;;17.72;100.00;97073.69;5042452;28;20210;-61
2023/08/11 01:22:55;;;;;;;4.25;3.90;;;;;;;17.66;100.00;97077.94;5043558;28;20282;-60
2023/08/11 01:25:23;;;;;;;4.30;4.00;;;;;;;17.61;100.00;97068.75;5042673;28;20199;-61
2023/08/11 01:27:54;;;;;;;6.15;3.90;;;;;;;17.58;100.00;97079.81;5041635;28;20640;-60
2023/08/11 01:30:21;;;;;;;6.28;3.80;;;;;;;17.56;100.00;97084.47;5042805;28;20659;-61
2023/08/11 01:32:48;;;;;;;4.07;3.70;;;;;;;17.54;100.00;97087.31;5042660;28;20227;-60
2023/08/11 01:35:14;;;;;;;4.10;3.70;;;;;;;17.51;100.00;97090.34;5042835;28;20211;-61
2023/08/11 01:37:41;;;;;;;5.57;4.50;;;;;;;17.58;100.00;97082.47;5042218;28;20196;-60
2023/08/11 01:40:10;;;;;;;4.05;3.67;;;;;;;17.55;100.00;97083.63;5043103;28;20853;-60
2023/08/11 01:42:38;;;;;;;4.25;3.83;;;;;;;17.55;100.00;97090.81;5042871;28;20231;-60
2023/08/11 01:45:06;;;;;;;4.40;3.90;;;;;;;17.58;100.00;97094.00;5043085;28;20204;-60
2023/08/11 01:47:32;;;;;;;4.45;4.05;;;;;;;17.59;100.00;97089.50;5042992;28;20208;-61
2023/08/11 01:49:59;;;;;;;5.47;3.95;;;;;;;17.57;100.00;97095.00;5042281;28;20205;-60
2023/08/11 01:52:26;;;;;;;4.40;4.10;;;;;;;17.52;100.00;97100.03;5042557;28;20203;-60
2023/08/11 01:54:52;;;;;;;4.20;3.90;;;;;;;17.56;100.00;97095.16;5042956;28;20298;-60
2023/08/11 01:57:19;;;;;;;4.82;4.13;;;;;;;17.56;100.00;97090.69;5041384;28;21360;-60
2023/08/11 01:59:48;;;;;;;6.72;3.90;;;;;;;17.52;100.00;97100.03;5042142;28;21646;-60
2023/08/11 02:02:15;;;;;;;5.38;3.67;;;;;;;17.51;100.00;97095.69;5042004;28;20597;-60
2023/08/11 02:04:41;;;;;;;5.88;3.72;;;;;;;17.46;100.00;97100.75;5042151;28;20537;-61
2023/08/11 02:07:08;;;;;;;9.82;4.28;;;;;;;17.43;100.00;97109.09;5042086;28;20210;-61
2023/08/11 02:09:34;;;;;;;4.50;4.10;;;;;;;17.39;100.00;97105.13;5041521;28;20258;-61
2023/08/11 02:12:02;;;;;;;4.82;4.00;;;;;;;17.39;100.00;97110.47;5041747;28;20207;-61
2023/08/11 02:14:29;;;;;;;6.28;3.95;;;;;;;17.38;100.00;97104.28;5041874;28;20694;-60
2023/08/11 02:17:00;;;;;;;4.30;3.90;;;;;;;17.35;100.00;97096.63;5041431;28;20207;-60
2023/08/11 02:19:27;;;;;;;4.25;3.95;;;;;;;17.36;100.00;97100.09;5041304;28;20627;-60
2023/08/11 02:21:55;;;;;;;4.30;3.90;;;;;;;17.38;100.00;97106.13;5042537;28;20243;-61
2023/08/11 02:24:21;;;;;;;6.50;4.15;;;;;;;17.37;100.00;97101.78;5041933;28;20251;-61
2023/08/11 02:26:47;;;;;;;4.05;3.65;;;;;;;17.35;100.00;97099.28;5050112;28;20203;-61
2023/08/11 02:29:14;;;;;;;3.83;3.53;;;;;;;17.35;100.00;97101.13;5045746;28;20223;-61
2023/08/11 02:31:41;;;;;;;4.28;3.88;;;;;;;17.26;100.00;97100.31;5047122;28;20223;-60
2023/08/11 02:34:09;;;;;;;5.78;4.30;;;;;;;17.28;100.00;97103.66;5041554;28;20242;-60
2023/08/11 02:36:36;;;;;;;5.55;4.25;;;;;;;17.27;100.00;97109.19;5041032;28;20204;-60
2023/08/11 02:39:05;;;;;;;4.50;4.10;;;;;;;17.27;100.00;97101.16;5041686;28;20266;-61
2023/08/11 02:41:31;;;;;;;6.75;4.30;;;;;;;17.24;100.00;97102.34;5041463;28;20712;-61
2023/08/11 02:43:58;;;;;;;4.65;3.92;;;;;;;17.17;100.00;97096.03;5042129;28;20207;-64
2023/08/11 02:46:24;;;;;;;4.57;4.20;;;;;;;17.18;100.00;97104.88;5041851;28;20199;-61
2023/08/11 02:48:51;;;;;;;4.20;3.90;;;;;;;17.12;100.00;97106.38;5041202;28;20212;-61
2023/08/11 02:51:19;;;;;;;4.82;4.30;;;;;;;17.14;100.00;97100.88;5041534;28;20208;-60
2023/08/11 02:53:45;;;;;;;5.00;3.75;;;;;;;17.13;100.00;97105.38;5040658;28;20687;-60
2023/08/11 02:56:15;;;;;;;5.93;4.32;;;;;;;17.07;100.00;97115.94;5041069;28;20631;-60
2023/08/11 02:58:41;;;;;;;5.93;4.50;;;;;;;17.05;100.00;97102.72;5042052;28;20210;-60
2023/08/11 03:01:09;;;;;;;4.75;4.20;;;;;;;17.05;100.00;97113.41;5040628;28;20192;-61
2023/08/11 03:03:36;;;;;;;4.63;4.22;;;;;;;17.08;100.00;97096.19;5040899;28;20598;-60
2023/08/11 03:06:04;;;;;;;5.57;4.57;;;;;;;17.03;100.00;97104.75;5041560;28;20273;-60
2023/08/11 03:08:32;;;;;;;4.85;4.35;;;;;;;17.03;100.00;97110.09;5041023;28;20291;-60
2023/08/11 03:10:58;;;;;;;4.45;4.05;;;;;;;16.98;100.00;97098.25;5041154;28;20207;-60
2023/08/11 03:13:28;;;;;;;5.35;4.05;;;;;;;16.99;100.00;97105.25;5040614;28;20749;-60
2023/08/11 03:15:55;;;;;;;5.68;4.30;;;;;;;16.93;100.00;97107.59;5041178;28;20261;-60
2023/08/11 03:18:21;;;;;;;7.30;4.20;;;;;;;16.93;100.00;97106.78;5041622;28;20265;-60
2023/08/11 03:20:48;;;;;;;4.25;3.90;;;;;;;16.91;100.00;97106.94;5040334;28;20214;-62
2023/08/11 03:23:14;;;;;;;4.93;4.55;;;;;;;16.93;100.00;97098.78;5041181;28;20199;-60
2023/08/11 03:25:42;;;;;;;4.55;4.20;;;;;;;16.84;100.00;97103.31;5041418;28;20644;-60
2023/08/11 03:28:09;;;;;;;5.70;3.92;;;;;;;16.87;100.00;97100.28;5040404;28;20212;-60
2023/08/11 03:30:36;;;;;;;5.25;4.30;;;;;;;16.86;100.00;97103.16;5040972;28;20221;-60
2023/08/11 03:33:03;;;;;;;4.68;4.28;;;;;;;16.81;100.00;97106.31;5039969;28;20628;-61
2023/08/11 03:35:29;;;;;;;4.25;3.88;;;;;;;16.90;100.00;97107.94;5040752;28;20296;-61
2023/08/11 03:37:56;;;;;;;4.25;3.95;;;;;;;16.86;100.00;97109.28;5040320;28;20539;-60
2023/08/11 03:40:22;;;;;;;6.35;4.28;;;;;;;16.78;100.00;97101.31;5040597;28;20282;-60
2023/08/11 03:42:50;;;;;;;4.47;4.00;;;;;;;16.79;100.00;97108.31;5040395;28;20207;-60
2023/08/11 03:45:19;;;;;;;4.53;4.10;;;;;;;16.82;100.00;97108.00;5041449;28;20270;-61
2023/08/11 03:47:46;;;;;;;4.78;4.00;;;;;;;16.75;100.00;97112.34;5041322;28;20303;-60
2023/08/11 03:50:13;;;;;;;4.65;4.18;;;;;;;16.73;100.00;97109.00;5041180;28;20229;-60
2023/08/11 03:52:39;;;;;;;4.53;4.13;;;;;;;16.78;100.00;97116.50;5040071;28;20243;-61
2023/08/11 03:55:09;;;;;;;6.88;4.55;;;;;;;16.78;100.00;97122.69;5040444;28;20234;-60
2023/08/11 03:57:36;;;;;;;4.40;4.03;;;;;;;16.75;100.00;97117.69;5041598;28;20207;-61
2023/08/11 04:00:05;;;;;;;4.40;4.00;;;;;;;16.76;100.00;97127.34;5040352;28;20204;-59
2023/08/11 04:02:31;;;;;;;5.78;4.40;;;;;;;16.75;100.00;97125.69;5039869;28;20224;-61
2023/08/11 04:04:58;;;;;;;4.45;4.05;;;;;;;16.78;100.00;97128.03;5040806;28;20204;-60
2023/08/11 04:07:24;;;;;;;4.75;4.28;;;;;;;16.79;100.00;97123.53;5039904;28;20847;-60
2023/08/11 04:09:54;;;;;;;4.55;4.15;;;;;;;16.72;100.00;97123.34;5040558;28;20214;-60
2023/08/11 04:12:20;;;;;;;4.90;4.20;;;;;;;16.75;100.00;97125.69;5039672;28;20238;-60
2023/08/11 04:14:47;;;;;;;4.50;4.10;;;;;;;16.72;100.00;97133.22;5044137;28;20241;-60
2023/08/11 04:17:16;;;;;;;4.50;4.10;;;;;;;16.71;100.00;97127.03;5043559;28;20211;-60
2023/08/11 04:19:46;;;;;;;4.97;4.40;;;;;;;16.70;100.00;97130.69;5042847;28;20214;-60
2023/08/11 04:22:12;;;;;;;4.60;4.20;;;;;;;16.66;100.00;97139.22;5044437;28;20202;-61
2023/08/11 04:24:39;;;;;;;4.95;4.55;;;;;;;16.65;100.00;97133.03;5043856;28;20636;-62
2023/08/11 04:27:06;;;;;;;5.03;4.10;;;;;;;16.58;100.00;97124.03;5043606;28;20219;-61
2023/08/11 04:29:32;;;;;;;4.38;3.97;;;;;;;16.61;100.00;97130.88;5044812;28;20534;-60
2023/08/11 04:32:02;;;;;;;5.07;4.20;;;;;;;16.62;100.00;97128.03;5045712;28;20195;-60
2023/08/11 04:34:33;;;;;;;4.60;4.30;;;;;;;16.60;100.00;97127.38;5044124;28;20216;-61
2023/08/11 04:37:00;;;;;;;5.70;4.10;;;;;;;16.59;100.00;97132.88;5047913;28;20640;-60
2023/08/11 04:39:26;;;;;;;4.40;4.00;;;;;;;16.62;100.00;97130.69;5052684;28;20249;-60
2023/08/11 04:41:53;;;;;;;4.43;4.03;;;;;;;16.61;100.00;97129.06;5054651;28;20204;-61
2023/08/11 04:44:19;;;;;;;6.28;4.38;;;;;;;16.63;100.00;97140.41;5050433;28;20214;-60
2023/08/11 04:46:46;;;;;;;4.47;4.07;;;;;;;16.65;100.00;97133.03;5044465;28;20652;-60
2023/08/11 04:49:12;;;;;;;6.07;4.22;;;;;;;16.71;100.00;97131.53;5045356;28;20210;-61
2023/08/11 04:51:40;;;;;;;4.40;4.00;;;;;;;16.78;100.00;97133.38;5045067;28;20214;-60
2023/08/11 04:54:07;;;;;;;5.10;4.18;;;;;;;16.86;100.00;97133.34;5043876;28;20226;-60
2023/08/11 04:56:33;;;;;;;4.85;4.22;;;;;;;16.91;100.00;97136.34;5042973;28;20211;-61
2023/08/11 04:59:00;;;;;;;4.82;4.10;;;;;;;16.95;100.00;97138.66;5043389;28;20266;-61
2023/08/11 05:01:26;;;;;;;5.18;4.28;;;;;;;16.98;100.00;97127.63;5042848;28;20663;-62
2023/08/11 05:03:53;;;;;;;4.63;3.88;;;;;;;16.93;100.00;97137.00;5043286;28;20196;-61
2023/08/11 05:06:20;;;;;;;4.80;4.15;;;;;;;16.95;100.00;97134.16;5043603;28;20200;-60
2023/08/11 05:08:48;;;;;;;7.15;4.70;;;;;;;17.05;100.00;97139.31;5042835;28;20215;-61
2023/08/11 05:11:15;;;;;;;4.88;4.40;;;;;;;17.16;100.00;97144.28;5043413;28;20212;-61
2023/08/11 05:13:41;;;;;;;4.90;4.28;;;;;;;17.26;100.00;97142.25;5043630;28;20670;-60
2023/08/11 05:16:07;;;;;;;4.45;4.05;;;;;;;17.34;100.00;97139.56;5043535;28;20351;-61
2023/08/11 05:18:35;;;;;;;3.88;3.58;;;;;;;17.32;100.00;97144.25;5043247;28;20548;-61
2023/08/11 05:21:02;;;;;;;6.47;3.92;;;;;;;17.35;100.00;97144.75;5044047;28;20602;-61
2023/08/11 05:23:29;;;;;;;4.70;3.97;;;;;;;17.45;100.00;97151.72;5043025;28;20204;-61
2023/08/11 05:25:57;;;;;;;4.82;4.20;;;;;;;17.52;100.00;97150.00;5042230;28;20206;-60
2023/08/11 05:28:24;;;;;;;5.30;4.80;;;;;;;17.65;100.00;97164.53;5042931;28;20207;-61
2023/08/11 05:30:50;;;;;;;4.75;4.30;;;;;;;17.72;100.00;97165.50;5042706;28;20208;-61
2023/08/11 05:33:17;;;;;;;4.68;4.35;;;;;;;17.86;100.00;97162.06;5043425;28;20281;-60
2023/08/11 05:35:43;;;;;;;4.25;3.83;;;;;;;17.94;100.00;97163.88;5042486;28;20216;-61
2023/08/11 05:38:10;;;;;;;5.35;4.80;;;;;;;18.11;100.00;97175.31;5042860;28;20287;-60
2023/08/11 05:40:36;;;;;;;6.18;5.05;;;;;;;18.24;100.00;97175.56;5042506;28;20545;-60
2023/08/11 05:43:04;;;;;;;5.95;5.32;;;;;;;18.43;100.00;97175.09;5042437;28;20218;-61
2023/08/11 05:45:30;;;;;;;6.85;5.15;;;;;;;18.56;100.00;97185.25;5042222;28;20621;-61
2023/08/11 05:47:58;;;;;;;7.22;5.75;;;;;;;18.71;100.00;97176.22;5042601;28;20204;-61
2023/08/11 05:50:24;;;;;;;6.05;5.28;;;;;;;18.86;100.00;97177.09;5042318;28;20200;-61
2023/08/11 05:52:51;;;;;;;4.93;4.53;;;;;;;19.01;100.00;97178.97;5042674;28;20196;-62
2023/08/11 05:55:17;;;;;;;5.95;5.32;;;;;;;19.17;100.00;97182.31;5043303;28;20234;-61
2023/08/11 05:57:44;;;;;;;5.40;4.90;;;;;;;19.37;100.00;97179.94;5041141;28;20407;-61
2023/08/11 06:00:17;;;;;;;6.45;5.15;;;;;;;19.58;100.00;97181.91;5041361;28;20647;-60
2023/08/11 06:02:45;;;;;;;6.15;5.50;;;;;;;19.70;100.00;97175.03;5041338;28;20313;-61
2023/08/11 06:05:12;;;;;;;6.70;5.43;;;;;;;19.90;100.00;97176.13;5041601;28;20210;-62
2023/08/11 06:07:39;;;;;;;4.97;4.57;;;;;;;20.10;100.00;97182.56;5042020;28;20246;-61
2023/08/11 06:10:06;;;;;;;5.97;5.00;;;;;;;20.27;100.00;97183.16;5041233;28;20235;-61
2023/08/11 06:12:33;;;;;;;5.75;4.40;;;;;;;20.45;100.00;97175.53;5041162;28;20290;-61
2023/08/11 06:14:59;;;;;;;5.45;4.95;;;;;;;20.61;100.00;97174.44;5040916;28;20216;-60
2023/08/11 06:17:27;;;;;;;5.28;4.78;;;;;;;20.80;100.00;97179.97;5041332;28;20203;-60
2023/08/11 06:19:53;;;;;;;5.35;4.85;;;;;;;20.99;100.00;97181.19;5040523;28;20199;-60
2023/08/11 06:22:20;;;;;;;4.93;4.53;;;;;;;21.21;100.00;97177.47;5041182;28;20214;-60
2023/08/11 06:24:46;;;;;;;5.25;4.45;;;;;;;21.43;100.00;97175.53;5040764;28;20232;-59
2023/08/11 06:27:13;;;;;;;4.72;4.32;;;;;;;21.60;100.00;97182.25;5041282;28;20257;-60
2023/08/11 06:29:39;;;;;;;5.03;4.53;;;;;;;21.77;100.00;97178.19;5040701;28;20203;-59
2023/08/11 06:32:06;;;;;;;4.93;4.50;;;;;;;21.90;100.00;97181.97;5041424;28;20203;-59
2023/08/11 06:34:33;;;;;;;4.80;4.20;;;;;;;22.04;100.00;97178.31;5041512;28;20242;-60
2023/08/11 06:36:59;;;;;;;5.80;4.90;;;;;;;22.17;100.00;97183.78;5039972;28;20207;-59
2023/08/11 06:39:25;;;;;;;5.10;4.60;;;;;;;22.29;100.00;97174.03;5040669;28;20210;-59
2023/08/11 06:41:52;;;;;;;5.38;4.88;;;;;;;22.45;100.00;97175.53;5040251;28;20195;-60
2023/08/11 06:44:18;;;;;;;4.95;4.50;;;;;;;22.59;100.00;97178.06;5040451;28;20206;-58
2023/08/11 06:46:45;;;;;;;9.52;4.75;;;;;;;22.70;99.64;97176.66;5041737;28;20222;-59
2023/08/11 06:49:11;;;;;;;4.43;4.13;;;;;;;22.90;98.88;97176.66;5040403;28;20199;-62
2023/08/11 06:51:39;;;;;;;5.22;4.72;;;;;;;23.04;97.02;97175.63;5041315;28;20203;-60
2023/08/11 06:54:06;;;;;;;5.10;4.60;;;;;;;23.18;96.48;97167.31;5040950;28;20218;-60
2023/08/11 06:56:32;;;;;;;5.03;4.60;;;;;;;23.27;94.08;97176.03;5040281;28;20203;-59
2023/08/11 06:58:59;;;;;;;6.72;4.55;;;;;;;23.31;94.26;97172.69;5040463;28;20203;-62
2023/08/11 07:01:26;;;;;;;5.00;4.60;;;;;;;23.51;93.70;97182.66;5041143;28;20219;-60
2023/08/11 07:03:53;;;;;;;5.60;4.28;;;;;;;23.63;92.40;97180.97;5040241;28;20265;-60
2023/08/11 07:06:19;;;;;;;6.20;4.70;;;;;;;23.76;91.37;97183.63;5040122;28;20208;-62
2023/08/11 07:08:47;;;;;;;5.03;4.57;;;;;;;23.96;91.27;97175.44;5040659;28;20207;-62
2023/08/11 07:11:14;;;;;;;6.85;4.90;;;;;;;24.04;90.19;97172.50;5040910;28;20269;-59
2023/08/11 07:13:40;;;;;;;6.13;4.60;;;;;;;24.11;91.56;97178.72;5039683;28;20326;-59
2023/08/11 07:16:06;;;;;;;5.45;4.95;;;;;;;24.24;88.67;97181.38;5040399;28;20827;-60
2023/08/11 07:18:33;;;;;;;6.28;4.70;;;;;;;24.42;87.06;97178.78;5040219;28;20544;-60
2023/08/11 07:20:59;;;;;;;6.18;5.10;;;;;;;24.59;87.33;97176.38;5040303;28;20627;-62
2023/08/11 07:23:26;;;;;;;7.00;4.95;;;;;;;24.55;86.11;97181.41;5040305;28;20206;-61
2023/08/11 07:25:54;;;;;;;9.10;4.72;;;;;;;24.68;87.30;97175.91;5040978;28;20192;-60
2023/08/11 07:28:20;;;;;;;7.68;5.75;;;;;;;24.75;85.47;97181.28;5040125;28;20215;-61
2023/08/11 07:30:47;;;;;;;5.30;4.82;;;;;;;24.84;86.03;97174.56;5040155;28;20536;-59
2023/08/11 07:33:13;;;;;;;5.20;4.70;;;;;;;24.80;82.80;97176.03;5040166;28;20652;-62
2023/08/11 07:35:39;;;;;;;6.75;4.97;;;;;;;24.91;86.95;97171.81;5040025;28;20238;-60
2023/08/11 07:38:06;;;;;;;6.82;4.40;;;;;;;25.07;83.70;97174.81;5040860;28;20203;-60
2023/08/11 07:40:32;;;;;;;5.47;5.00;;;;;;;24.95;84.27;97178.44;5040018;28;20214;-60
2023/08/11 07:43:00;;;;;;;6.30;4.40;;;;;;;25.10;87.58;97170.84;5040131;28;20207;-59
2023/08/11 07:45:28;;;;;;;4.90;4.35;;;;;;;25.38;85.86;97176.59;5040993;28;20200;-59
2023/08/11 07:47:54;;;;;;;5.32;4.50;;;;;;;25.45;84.85;97181.97;5040963;28;20214;-59
2023/08/11 07:50:21;;;;;;;4.75;4.30;;;;;;;25.48;86.40;97174.22;5044413;28;20200;-60
2023/08/11 07:52:48;;;;;;;5.53;4.40;;;;;;;25.68;83.37;97177.56;5044008;28;20219;-60
2023/08/11 07:55:14;;;;;;;6.53;4.53;;;;;;;25.74;82.46;97181.28;5044038;28;20321;-60
2023/08/11 07:57:40;;;;;;;6.20;4.55;;;;;;;25.82;81.94;97177.44;5043605;28;20662;-60
2023/08/11 08:00:16;;;;;;;6.57;4.78;;;;;;;25.69;81.39;97179.22;5043637;28;20196;-58
2023/08/11 08:02:42;;;;;;;4.63;4.22;;;;;;;25.82;79.95;97178.28;5043948;28;20238;-59
2023/08/11 08:05:09;;;;;;;7.22;4.53;;;;;;;25.99;80.39;97184.72;5043654;28;20206;-60
2023/08/11 08:07:36;;;;;;;5.65;4.38;;;;;;;26.00;82.99;97185.56;5043879;28;20214;-61
2023/08/11 08:10:08;;;;;;;5.35;4.63;;;;;;;25.97;83.95;97175.97;5044102;28;20218;-60
2023/08/11 08:12:34;;;;;;;5.18;4.68;;;;;;;26.07;82.31;97183.59;5045274;28;20218;-59
2023/08/11 08:15:01;;;;;;;6.00;4.95;;;;;;;25.98;81.67;97176.81;5044884;28;20228;-61
2023/08/11 08:17:29;;;;;;;5.50;5.00;;;;;;;26.10;82.16;97180.44;5045797;28;20226;-59
2023/08/11 08:19:55;;;;;;;6.50;4.63;;;;;;;26.25;81.09;97177.34;5043223;28;20218;-60
2023/08/11 08:22:21;;;;;;;6.50;5.03;;;;;;;26.35;80.52;97177.63;5043506;28;20212;-60
2023/08/11 08:24:48;;;;;;;5.18;4.70;;;;;;;26.38;79.67;97183.44;5044318;28;20211;-60
2023/08/11 08:27:17;;;;;;;5.85;4.78;;;;;;;26.46;76.76;97176.84;5042975;28;20195;-59
2023/08/11 08:29:43;;;;;;;4.63;4.22;;;;;;;26.69;77.71;97177.75;5045921;28;20206;-60
2023/08/11 08:32:10;;;;;;;6.82;4.85;;;;;;;26.65;77.88;97168.41;5046036;28;20291;-60
2023/08/11 08:34:38;;;;;;;6.03;4.50;;;;;;;26.76;77.77;97174.09;5043540;28;20207;-60
2023/08/11 08:37:05;;;;;;;5.03;4.57;;;;;;;26.85;76.11;97176.31;5043358;28;20215;-59
2023/08/11 08:39:32;;;;;;;4.60;4.15;;;;;;;26.97;75.14;97176.31;5042555;28;20200;-60
2023/08/11 08:41:59;;;;;;;5.35;4.43;;;;;;;27.11;76.80;97167.72;5043931;28;20196;-60
2023/08/11 08:44:26;;;;;;;6.72;4.68;;;;;;;27.05;76.14;97176.81;5042684;28;20302;-60
2023/08/11 08:46:54;;;;;;;7.15;4.55;;;;;;;27.06;74.59;97174.94;5042937;28;20582;-60
2023/08/11 08:49:23;;;;;;;4.82;4.35;;;;;;;26.98;76.28;97176.09;5042608;28;20207;-60
2023/08/11 08:51:52;;;;;;;5.85;4.22;;;;;;;27.20;74.43;97177.19;5042734;28;20203;-61
2023/08/11 08:54:19;;;;;;;6.30;5.03;;;;;;;27.31;75.02;97174.72;5043447;28;20205;-61
2023/08/11 08:56:46;;;;;;;5.88;4.65;;;;;;;27.30;73.72;97171.16;5042046;28;20234;-60
2023/08/11 08:59:12;;;;;;;5.22;4.72;;;;;;;27.34;72.66;97172.34;5043252;28;20214;-59
2023/08/11 09:01:39;;;;;;;6.18;4.68;;;;;;;27.55;75.50;97169.06;5042281;28;20239;-60
2023/08/11 09:04:06;;;;;;;4.57;4.10;;;;;;;27.69;75.48;97170.47;5044802;28;20285;-60
2023/08/11 09:06:34;;;;;;;5.75;4.53;;;;;;;27.73;77.52;97164.56;5044499;28;20667;-59
2023/08/11 09:09:02;;;;;;;4.68;4.28;;;;;;;27.87;74.97;97168.66;5042823;28;20211;-62
2023/08/11 09:11:29;;;;;;;7.95;4.90;;;;;;;27.90;72.60;97160.88;5042069;28;20605;-61
2023/08/11 09:14:02;;;;;;;4.55;4.20;;;;;;;28.04;72.37;97156.81;5043730;28;20223;-61
2023/08/11 09:16:28;;;;;;;5.18;4.40;;;;;;;28.09;69.99;97158.84;5043692;28;20231;-60
2023/08/11 09:18:55;;;;;;;5.45;4.10;;;;;;;28.31;71.61;97157.09;5042991;28;20203;-59
2023/08/11 09:21:24;;;;;;;4.78;4.38;;;;;;;28.42;70.40;97156.22;5041837;28;20195;-60
2023/08/11 09:23:53;;;;;;;5.15;4.50;;;;;;;28.48;69.55;97159.88;5042206;28;20244;-61
2023/08/11 09:26:21;;;;;;;4.18;3.88;;;;;;;28.52;70.82;97153.69;5042134;28;20215;-60
2023/08/11 09:28:48;;;;;;;4.70;4.30;;;;;;;28.53;71.04;97147.19;5042744;28;20217;-61
2023/08/11 09:31:14;;;;;;;7.07;4.55;;;;;;;28.52;70.30;97153.69;5042353;28;20199;-61
2023/08/11 09:33:41;;;;;;;8.23;4.28;;;;;;;28.48;70.47;97149.81;5042484;28;20208;-61
2023/08/11 09:36:08;;;;;;;4.70;4.30;;;;;;;28.60;69.19;97150.56;5041992;28;20736;-59
2023/08/11 09:38:35;;;;;;;4.50;4.10;;;;;;;28.71;69.12;97148.06;5042219;28;20211;-60
2023/08/11 09:41:03;;;;;;;5.13;4.40;;;;;;;28.66;68.13;97152.31;5041795;28;20211;-60
2023/08/11 09:43:32;;;;;;;5.13;4.00;;;;;;;28.78;67.72;97162.34;5041476;28;20212;-61
2023/08/11 09:45:59;;;;;;;4.28;3.95;;;;;;;28.80;68.24;97150.16;5040892;28;20662;-62
2023/08/11 09:48:26;;;;;;;4.57;4.18;;;;;;;28.99;69.48;97153.44;5041920;28;20680;-61
2023/08/11 09:50:52;;;;;;;4.55;4.05;;;;;;;29.11;69.73;97151.47;5041915;28;20651;-63
2023/08/11 09:53:19;;;;;;;4.57;4.18;;;;;;;29.25;68.89;97152.81;5041988;28;20596;-62
2023/08/11 09:55:47;;;;;;;4.65;4.20;;;;;;;29.20;67.96;97152.69;5041772;28;20294;-61
2023/08/11 09:58:15;;;;;;;4.30;3.90;;;;;;;29.12;67.12;97147.69;5041504;28;20546;-62
2023/08/11 10:00:43;;;;;;;5.32;4.03;;;;;;;29.14;67.94;97143.63;5041508;28;20203;-61
2023/08/11 10:03:11;;;;;;;4.90;4.28;;;;;;;29.16;67.21;97143.38;5041970;28;20267;-62
2023/08/11 10:05:42;;;;;;;3.92;3.65;;;;;;;29.17;66.55;97139.59;5040583;28;20556;-62
2023/08/11 10:08:10;;;;;;;5.15;4.45;;;;;;;28.96;67.89;97138.44;5041377;28;20261;-62
2023/08/11 10:10:38;;;;;;;5.85;4.53;;;;;;;28.95;68.10;97141.41;5041511;28;20203;-62
2023/08/11 10:13:08;;;;;;;5.40;4.43;;;;;;;28.93;69.00;97138.09;5040029;28;20648;-62
2023/08/11 10:15:35;;;;;;;5.55;4.40;;;;;;;28.92;69.59;97137.28;5041119;28;20227;-61
2023/08/11 10:18:03;;;;;;;4.50;4.20;;;;;;;29.10;69.10;97134.31;5040905;28;20204;-62
2023/08/11 10:20:30;;;;;;;4.25;3.85;;;;;;;29.13;67.22;97135.69;5041574;28;20266;-63
2023/08/11 10:22:57;;;;;;;7.35;4.05;;;;;;;29.23;67.42;97137.78;5041466;28;20204;-64
2023/08/11 10:25:25;;;;;;;5.82;4.40;;;;;;;29.43;69.72;97135.38;5040810;28;20217;-61
2023/08/11 10:27:52;;;;;;;4.50;4.10;;;;;;;29.45;67.60;97131.31;5040495;28;20248;-62
2023/08/11 10:30:18;;;;;;;4.47;4.07;;;;;;;29.47;68.08;97133.81;5041418;28;20215;-63
2023/08/11 10:32:45;;;;;;;5.60;4.30;;;;;;;29.47;67.90;97123.75;5040745;28;20196;-62
2023/08/11 10:35:18;;;;;;;4.50;4.10;;;;;;;29.49;66.94;97131.66;5039264;28;20226;-65
2023/08/11 10:37:45;;;;;;;4.20;3.90;;;;;;;29.46;66.50;97132.97;5040622;28;20245;-62
2023/08/11 10:40:11;;;;;;;4.55;4.13;;;;;;;29.61;68.47;97124.19;5040939;28;20256;-63
2023/08/11 10:42:39;;;;;;;4.18;3.80;;;;;;;29.65;66.70;97123.41;5040490;28;20268;-59
2023/08/11 10:45:09;;;;;;;4.03;3.72;;;;;;;29.73;69.12;97118.63;5041064;28;20200;-63
2023/08/11 10:47:37;;;;;;;4.15;3.70;;;;;;;29.86;67.39;97110.09;5041649;28;20261;-61
2023/08/11 10:50:04;;;;;;;3.97;3.60;;;;;;;29.97;65.03;97112.69;5040385;28;20623;-62
2023/08/11 10:52:34;;;;;;;3.80;3.50;;;;;;;29.88;65.39;97118.84;5040379;28;20210;-63
2023/08/11 10:55:02;;;;;;;3.60;3.30;;;;;;;30.08;63.99;97113.63;5040669;28;20214;-62
2023/08/11 10:57:30;;;;;;;3.53;3.22;;;;;;;30.03;62.89;97114.41;5039722;28;20223;-64
2023/08/11 10:59:57;;;;;;;3.67;3.38;;;;;;;29.98;64.51;97114.34;5041104;28;20632;-63
2023/08/11 11:02:24;;;;;;;4.55;3.55;;;;;;;30.05;62.35;97114.13;5040098;28;20821;-63
2023/08/11 11:04:51;;;;;;;3.50;3.30;;;;;;;30.22;62.92;97114.88;5040685;28;20217;-63
2023/08/11 11:07:21;;;;;;;3.45;3.15;;;;;;;30.28;61.82;97108.41;5040568;28;20303;-63
2023/08/11 11:09:51;;;;;;;3.67;3.47;;;;;;;30.23;61.27;97105.63;5040055;28;20195;-63
2023/08/11 11:12:20;;;;;;;4.25;3.30;;;;;;;30.38;61.87;97107.69;5042423;28;20200;-66
2023/08/11 11:14:47;;;;;;;3.70;3.50;;;;;;;30.50;62.02;97100.22;5040713;28;20211;-62
2023/08/11 11:17:14;;;;;;;3.85;3.45;;;;;;;30.60;62.93;97101.13;5040897;28;20221;-61
2023/08/11 11:19:41;;;;;;;6.35;3.45;;;;;;;30.57;59.15;97101.63;5039669;28;20644;-63
2023/08/11 11:22:08;;;;;;;3.78;3.47;;;;;;;30.62;61.72;97109.06;5041082;28;20221;-62
2023/08/11 11:24:34;;;;;;;4.38;3.60;;;;;;;30.54;61.60;97102.16;5043659;28;20234;-65
2023/08/11 11:27:03;;;;;;;3.85;3.40;;;;;;;30.60;61.84;97101.13;5047047;28;20341;-70
2023/08/11 11:29:30;;;;;;;4.40;3.45;;;;;;;30.44;60.17;97098.50;5045468;28;20213;-64